createdAt,value
2023-02-22T00:02:10.984Z,91.17
2023-02-22T00:07:15.172Z,91.18
2023-02-22T00:12:18.792Z,91.49
2023-02-22T00:17:22.309Z,91.22
2023-02-22T00:22:25.828Z,90.99
2023-02-22T00:27:29.457Z,91.07
2023-02-22T00:32:33.311Z,90.93
2023-02-22T00:37:36.781Z,91.30
2023-02-22T00:42:40.394Z,91.63
2023-02-22T00:47:43.807Z,91.60
2023-02-22T00:52:48.348Z,91.75
2023-02-22T00:57:51.662Z,91.90
2023-02-22T01:02:57.199Z,91.72
2023-02-22T01:08:02.607Z,91.63
2023-02-22T01:13:09.515Z,91.43
2023-02-22T01:18:13.613Z,91.14
2023-02-22T01:23:17.645Z,91.06
2023-02-22T01:28:22.786Z,91.08
2023-02-22T01:33:26.414Z,91.19
2023-02-22T01:38:29.916Z,91.06
2023-02-22T01:43:34.291Z,90.80
2023-02-22T01:48:49.747Z,90.63
2023-02-22T01:54:18.999Z,90.65
2023-02-22T01:59:23.609Z,90.62
2023-02-22T02:04:28.451Z,90.35
2023-02-22T02:09:50.300Z,90.15
2023-02-22T02:14:54.225Z,90.19
2023-02-22T02:20:12.183Z,89.84
2023-02-22T02:25:18.781Z,89.74
2023-02-22T02:30:50.342Z,89.36
2023-02-22T02:36:26.522Z,89.49
2023-02-22T02:41:36.486Z,89.53
2023-02-22T02:47:03.094Z,89.58
2023-02-22T02:52:09.513Z,89.36
2023-02-22T02:57:13.457Z,89.38
2023-02-22T03:02:34.992Z,89.40
2023-02-22T03:07:51.106Z,89.35
2023-02-22T03:13:06.613Z,89.45
2023-02-22T03:18:23.141Z,89.47
2023-02-22T03:23:35.660Z,89.53
2023-02-22T03:28:43.570Z,89.30
2023-02-22T03:33:52.513Z,89.30
2023-02-22T03:38:59.746Z,89.41
2023-02-22T03:44:11.319Z,89.22
2023-02-22T03:49:37.983Z,89.25
2023-02-22T03:54:41.697Z,89.19
2023-02-22T03:59:46.252Z,89.34
2023-02-22T04:04:50.126Z,89.21
2023-02-22T04:09:53.676Z,89.27
2023-02-22T04:14:57.197Z,88.98
2023-02-22T04:20:00.706Z,89.04
2023-02-22T04:25:04.528Z,88.87
2023-02-22T04:30:09.014Z,88.85
2023-02-22T04:35:12.693Z,88.52
2023-02-22T04:40:17.842Z,88.28
2023-02-22T04:45:21.254Z,88.46
2023-02-22T04:50:25.180Z,88.36
2023-02-22T04:55:28.801Z,88.42
2023-02-22T05:00:32.318Z,88.17
2023-02-22T05:05:35.851Z,88.09
2023-02-22T05:10:39.342Z,87.97
2023-02-22T05:15:42.921Z,87.82
2023-02-22T05:20:46.429Z,87.53
2023-02-22T05:25:49.992Z,87.03
2023-02-22T05:30:53.507Z,86.89
2023-02-22T05:35:57.024Z,86.51
2023-02-22T05:41:01.458Z,86.73
2023-02-22T05:46:04.779Z,86.53
2023-02-22T05:51:10.887Z,86.78
2023-02-22T05:56:15.901Z,86.94
2023-02-22T06:01:20.192Z,87.21
2023-02-22T06:06:23.550Z,87.35
2023-02-22T06:11:27.089Z,87.64
2023-02-22T06:16:32.176Z,87.43
2023-02-22T06:21:35.625Z,87.36
2023-02-22T06:26:39.139Z,87.53
2023-02-22T06:31:42.716Z,87.43
2023-02-22T06:36:48.342Z,87.09
2023-02-22T06:41:52.487Z,87.38
2023-02-22T06:46:56.630Z,87.38
2023-02-22T06:52:00.305Z,87.46
2023-02-22T06:57:03.915Z,87.40
2023-02-22T07:02:07.421Z,87.54
2023-02-22T07:07:11.366Z,87.17
2023-02-22T07:12:15.084Z,87.26
2023-02-22T07:17:18.397Z,87.14
2023-02-22T07:22:21.917Z,87.16
2023-02-22T07:27:25.428Z,86.68
2023-02-22T07:32:28.980Z,86.68
2023-02-22T07:37:32.767Z,86.56
2023-02-22T07:43:10.890Z,86.53
2023-02-22T07:48:17.373Z,86.82
2023-02-22T07:53:30.487Z,86.40
2023-02-22T07:58:33.933Z,86.67
2023-02-22T08:03:38.413Z,86.56
2023-02-22T08:08:41.989Z,86.50
2023-02-22T08:13:45.500Z,86.41
2023-02-22T08:18:49.023Z,86.49
2023-02-22T08:23:54.616Z,86.37
2023-02-22T08:28:58.108Z,86.17
2023-02-22T08:34:01.612Z,85.94
2023-02-22T08:39:05.330Z,86.10
2023-02-22T08:44:08.847Z,85.69
2023-02-22T08:49:12.358Z,85.80
2023-02-22T08:54:15.978Z,86.05
2023-02-22T08:59:19.594Z,85.98
2023-02-22T09:04:23.211Z,85.73
2023-02-22T09:09:26.724Z,85.69
2023-02-22T09:14:30.342Z,85.98
2023-02-22T09:19:33.960Z,85.80
2023-02-22T09:24:37.582Z,86.01
2023-02-22T09:29:41.301Z,85.78
2023-02-22T09:34:46.157Z,85.65
2023-02-22T09:39:49.645Z,85.37
2023-02-22T09:45:13.152Z,84.03
2023-02-22T09:50:22.913Z,84.18
2023-02-22T09:55:36.869Z,84.28
2023-02-22T10:00:43.934Z,84.52
2023-02-22T10:06:02.252Z,84.77
2023-02-22T10:11:26.838Z,83.05
2023-02-22T10:16:49.249Z,82.61
2023-02-22T10:22:14.317Z,83.27
2023-02-22T10:27:27.996Z,83.47
2023-02-22T10:32:59.965Z,83.29
2023-02-22T10:38:12.714Z,83.15
2023-02-22T10:43:16.308Z,82.85
2023-02-22T10:48:21.923Z,81.41
2023-02-22T10:53:28.002Z,81.84
2023-02-22T10:59:02.615Z,81.47
2023-02-22T11:04:15.325Z,81.72
2023-02-22T11:09:22.840Z,81.40
2023-02-22T11:14:31.263Z,80.43
2023-02-22T11:19:36.632Z,80.00
2023-02-22T11:25:07.682Z,79.04
2023-02-22T11:30:19.007Z,79.46
2023-02-22T11:35:28.342Z,78.91
2023-02-22T11:40:33.883Z,79.12
2023-02-22T11:45:49.738Z,80.01
2023-02-22T11:51:14.606Z,79.09
2023-02-22T11:56:41.110Z,77.96
2023-02-22T12:02:00.253Z,78.81
2023-02-22T12:07:30.190Z,78.15
2023-02-22T12:12:43.327Z,77.22
2023-02-22T12:18:01.082Z,76.05
2023-02-22T12:23:15.067Z,76.17
2023-02-22T12:28:39.475Z,75.25
2023-02-22T12:34:22.202Z,75.32
2023-02-22T12:39:53.770Z,74.80
2023-02-22T12:45:17.154Z,74.57
2023-02-22T12:50:23.789Z,75.47
2023-02-22T12:55:36.147Z,74.93
2023-02-22T13:00:45.722Z,75.76
2023-02-22T13:05:57.719Z,75.62
2023-02-22T13:11:04.099Z,75.03
2023-02-22T13:16:37.003Z,74.58
2023-02-22T13:21:53.729Z,75.66
2023-02-22T13:27:01.033Z,75.28
2023-02-22T13:32:16.431Z,75.13
2023-02-22T13:37:41.451Z,75.51
2023-02-22T13:43:16.196Z,75.35
2023-02-22T13:48:38.861Z,74.01
2023-02-22T13:53:58.193Z,74.81
2023-02-22T13:59:03.806Z,74.74
2023-02-22T14:04:37.427Z,73.82
2023-02-22T14:09:47.107Z,74.58
2023-02-22T14:15:26.758Z,73.78
2023-02-22T14:20:40.406Z,73.60
2023-02-22T14:25:44.945Z,73.48
2023-02-22T14:30:48.150Z,73.60
2023-02-22T14:35:52.792Z,73.32
2023-02-22T14:40:59.293Z,73.44
2023-02-22T14:46:05.593Z,74.45
2023-02-22T14:51:26.529Z,74.37
2023-02-22T14:57:15.105Z,74.68
2023-02-22T15:02:20.758Z,73.93
2023-02-22T15:07:31.942Z,74.31
2023-02-22T15:12:36.554Z,73.67
2023-02-22T15:17:40.994Z,73.02
2023-02-22T15:22:44.645Z,73.56
2023-02-22T15:27:48.237Z,72.96
2023-02-22T15:33:03.607Z,73.03
2023-02-22T15:38:20.283Z,72.61
2023-02-22T15:43:25.211Z,73.03
2023-02-22T15:48:32.022Z,72.99
2023-02-22T15:53:40.224Z,73.61
2023-02-22T15:58:46.806Z,73.87
2023-02-22T16:03:59.953Z,74.23
2023-02-22T16:09:14.936Z,74.74
2023-02-22T16:14:26.736Z,74.58
2023-02-22T16:19:37.018Z,74.83
2023-02-22T16:24:41.269Z,75.05
2023-02-22T16:30:00.839Z,74.80
2023-02-22T16:35:04.504Z,74.63
2023-02-22T16:40:22.721Z,74.23
2023-02-22T16:45:26.128Z,73.92
2023-02-22T16:50:29.439Z,74.23
2023-02-22T16:55:33.571Z,74.01
2023-02-22T17:00:37.086Z,74.06
2023-02-22T17:05:40.628Z,74.28
2023-02-22T17:10:46.576Z,74.13
2023-02-22T17:15:50.437Z,74.53
2023-02-22T17:20:55.169Z,74.65
2023-02-22T17:26:03.610Z,74.95
2023-02-22T17:31:07.716Z,74.72
2023-02-22T17:36:11.109Z,74.78
2023-02-22T17:41:14.630Z,74.81
2023-02-22T17:46:20.170Z,74.94
2023-02-22T17:51:26.403Z,74.99
2023-02-22T17:56:29.805Z,74.89
2023-02-22T18:01:34.016Z,74.69
2023-02-22T18:06:38.459Z,74.78
2023-02-22T18:11:41.852Z,74.80
2023-02-22T18:16:47.755Z,74.79
2023-02-22T18:21:51.223Z,74.84
2023-02-22T18:26:54.709Z,74.96
2023-02-22T18:31:58.397Z,75.09
2023-02-22T18:37:01.863Z,75.17
2023-02-22T18:42:05.521Z,75.05
2023-02-22T18:47:09.243Z,75.16
2023-02-22T18:52:12.853Z,75.50
2023-02-22T18:57:17.202Z,75.58
2023-02-22T19:02:21.440Z,75.71
2023-02-22T19:07:26.505Z,75.69
2023-02-22T19:12:31.634Z,75.32
2023-02-22T19:17:36.801Z,75.44
2023-02-22T19:22:40.239Z,75.05
2023-02-22T19:27:44.738Z,75.06
2023-02-22T19:32:48.233Z,75.19
2023-02-22T19:38:00.765Z,75.24
2023-02-22T19:43:04.707Z,75.28
2023-02-22T19:48:08.291Z,75.06
2023-02-22T19:53:14.293Z,75.20
2023-02-22T19:58:17.610Z,75.27
2023-02-22T20:03:24.943Z,75.28
2023-02-22T20:08:28.574Z,75.34
2023-02-22T20:13:32.348Z,75.51
2023-02-22T20:18:36.987Z,75.82
2023-02-22T20:23:44.471Z,75.94
2023-02-22T20:28:48.835Z,76.09
2023-02-22T20:33:57.475Z,76.21
2023-02-22T20:39:01.394Z,76.12
2023-02-22T20:44:07.119Z,76.13
2023-02-22T20:49:14.140Z,76.02
2023-02-22T20:54:18.038Z,76.22
2023-02-22T20:59:22.114Z,76.18
2023-02-22T21:04:25.666Z,76.17
2023-02-22T21:09:29.989Z,76.17
2023-02-22T21:14:33.380Z,76.25
2023-02-22T21:19:36.912Z,76.38
2023-02-22T21:24:40.927Z,76.39
2023-02-22T21:29:44.439Z,76.40
2023-02-22T21:34:48.266Z,76.41
2023-02-22T21:39:51.677Z,76.31
2023-02-22T21:44:56.524Z,76.45
2023-02-22T21:50:01.992Z,76.45
2023-02-22T21:55:06.424Z,76.60
2023-02-22T22:00:29.314Z,76.58
2023-02-22T22:05:34.349Z,76.72
2023-02-22T22:10:37.858Z,76.64
2023-02-22T22:15:41.433Z,76.69
2023-02-22T22:20:45.297Z,76.73
2023-02-22T22:25:51.475Z,76.85
2023-02-22T22:30:55.136Z,76.98
2023-02-22T22:35:59.017Z,77.00
2023-02-22T22:41:05.910Z,76.85
2023-02-22T22:46:09.372Z,77.01
2023-02-22T22:51:17.014Z,76.86
2023-02-22T22:56:35.499Z,76.94
2023-02-22T23:01:44.928Z,77.00
2023-02-22T23:06:50.959Z,76.94
2023-02-22T23:12:22.870Z,76.75
2023-02-22T23:17:31.553Z,76.91
2023-02-22T23:22:35.061Z,76.96
2023-02-22T23:27:38.577Z,76.65
2023-02-22T23:32:43.015Z,77.11
2023-02-22T23:37:58.207Z,76.99
2023-02-22T23:43:04.483Z,77.07
2023-02-22T23:48:07.852Z,76.85
2023-02-22T23:53:15.410Z,76.80
2023-02-22T23:58:23.027Z,76.88
